createdAt,value
2022-11-23T00:00:16.753Z,0
2022-11-23T00:01:19.574Z,0
2022-11-23T00:03:25.924Z,0
2022-11-23T00:04:28.694Z,0
2022-11-23T00:05:31.668Z,0
2022-11-23T00:06:35.360Z,0
2022-11-23T00:08:43.571Z,0
2022-11-23T00:10:49.691Z,0
2022-11-23T00:11:52.181Z,0
2022-11-23T00:13:58.396Z,0
2022-11-23T00:16:03.166Z,0
2022-11-23T00:18:08.965Z,0
2022-11-23T00:19:12.010Z,0
2022-11-23T00:21:17.558Z,0
2022-11-23T00:23:25.145Z,0
2022-11-23T00:25:29.964Z,0
2022-11-23T00:26:33.372Z,0
2022-11-23T00:28:38.985Z,0
2022-11-23T00:30:45.862Z,0
2022-11-23T00:32:51.498Z,0
2022-11-23T00:33:53.994Z,0
2022-11-23T00:36:00.279Z,0
2022-11-23T00:38:06.705Z,0
2022-11-23T00:40:13.273Z,0
2022-11-23T00:41:16.603Z,0
2022-11-23T00:43:23.507Z,0
2022-11-23T00:45:28.895Z,0
2022-11-23T00:47:34.724Z,0
2022-11-23T00:48:38.049Z,0
2022-11-23T00:50:44.298Z,0
2022-11-23T00:52:50.413Z,0
2022-11-23T00:53:53.908Z,0
2022-11-23T00:54:57.761Z,0
2022-11-23T00:56:01.155Z,0
2022-11-23T00:58:04.973Z,0
2022-11-23T00:59:07.947Z,0
2022-11-23T01:00:11.004Z,0
2022-11-23T01:01:14.752Z,0
2022-11-23T01:03:21.189Z,0
2022-11-23T01:04:24.517Z,0
2022-11-23T01:05:27.889Z,0
2022-11-23T01:06:31.254Z,0
2022-11-23T01:08:37.204Z,0
2022-11-23T01:09:40.423Z,0
2022-11-23T01:10:44.198Z,0
2022-11-23T01:11:47.231Z,0
2022-11-23T01:13:52.123Z,0
2022-11-23T01:14:55.261Z,0
2022-11-23T01:15:58.377Z,0
2022-11-23T01:17:01.226Z,0
2022-11-23T01:19:07.144Z,0
2022-11-23T01:21:12.705Z,0
2022-11-23T01:22:15.784Z,0
2022-11-23T01:24:21.710Z,0
2022-11-23T01:26:28.723Z,0
2022-11-23T01:28:34.839Z,0
2022-11-23T01:29:38.168Z,0
2022-11-23T01:31:48.252Z,0
2022-11-23T01:33:55.662Z,0
2022-11-23T01:36:01.471Z,0
2022-11-23T01:37:04.156Z,0
2022-11-23T01:39:09.999Z,0
2022-11-23T01:41:15.711Z,0
2022-11-23T01:43:23.242Z,0
2022-11-23T01:44:26.312Z,0
2022-11-23T01:46:31.706Z,0
2022-11-23T01:48:37.279Z,0
2022-11-23T01:49:39.505Z,0
2022-11-23T01:51:46.894Z,0
2022-11-23T01:53:52.058Z,0
2022-11-23T01:54:55.393Z,0
2022-11-23T01:55:59.391Z,0
2022-11-23T01:57:02.624Z,0
2022-11-23T01:59:10.022Z,0
2022-11-23T02:01:16.201Z,0
2022-11-23T02:02:19.302Z,0
2022-11-23T02:04:24.639Z,0
2022-11-23T02:06:31.086Z,0
2022-11-23T02:07:34.777Z,0
2022-11-23T02:08:37.767Z,0
2022-11-23T02:09:39.980Z,0
2022-11-23T02:11:44.521Z,0
2022-11-23T02:12:48.191Z,0
2022-11-23T02:13:51.961Z,0
2022-11-23T02:14:54.936Z,0
2022-11-23T02:17:01.487Z,0
2022-11-23T02:18:04.908Z,0
2022-11-23T02:20:10.863Z,0
2022-11-23T02:22:15.527Z,0
2022-11-23T02:23:18.299Z,0
2022-11-23T02:24:21.074Z,0
2022-11-23T02:25:23.556Z,0
2022-11-23T02:27:28.942Z,0
2022-11-23T02:28:32.147Z,0
2022-11-23T02:30:39.204Z,0
2022-11-23T02:32:45.758Z,0
2022-11-23T02:34:51.503Z,0
2022-11-23T02:35:54.570Z,0
2022-11-23T02:38:00.594Z,0
2022-11-23T02:39:03.172Z,0
2022-11-23T02:41:08.712Z,0
2022-11-23T02:43:14.018Z,0
2022-11-23T02:44:17.368Z,0
2022-11-23T02:46:24.849Z,0
2022-11-23T02:48:30.071Z,0
2022-11-23T02:50:37.937Z,0
2022-11-23T02:51:40.980Z,0
2022-11-23T02:53:46.495Z,0
2022-11-23T02:55:52.033Z,0
2022-11-23T02:56:55.084Z,0
2022-11-23T02:57:57.589Z,0
2022-11-23T02:59:00.645Z,0
2022-11-23T03:01:08.090Z,0
2022-11-23T03:03:13.736Z,0
2022-11-23T03:05:19.945Z,0
2022-11-23T03:06:22.639Z,0
2022-11-23T03:08:29.234Z,0
2022-11-23T03:10:37.830Z,0
2022-11-23T03:12:43.058Z,0
2022-11-23T03:13:46.377Z,0
2022-11-23T03:15:52.052Z,0
2022-11-23T03:17:58.890Z,0
2022-11-23T03:20:05.226Z,0
2022-11-23T03:21:07.998Z,0
2022-11-23T03:23:14.182Z,0
2022-11-23T03:25:20.002Z,0
2022-11-23T03:27:26.511Z,0
2022-11-23T03:28:29.279Z,0
2022-11-23T03:30:37.306Z,0
2022-11-23T03:32:44.398Z,0
2022-11-23T03:34:50.779Z,0
2022-11-23T03:35:53.262Z,0
2022-11-23T03:37:59.228Z,0
2022-11-23T03:40:04.661Z,0
2022-11-23T03:42:11.238Z,0
2022-11-23T03:43:13.944Z,0
2022-11-23T03:45:18.957Z,0
2022-11-23T03:47:24.555Z,0
2022-11-23T03:49:34.241Z,0
2022-11-23T03:50:37.610Z,0
2022-11-23T03:52:42.949Z,0
2022-11-23T03:54:49.513Z,0
2022-11-23T03:56:55.432Z,0
2022-11-23T03:57:58.200Z,0
2022-11-23T04:00:04.406Z,0
2022-11-23T04:02:10.934Z,0
2022-11-23T04:04:17.933Z,0
2022-11-23T04:05:20.632Z,0
2022-11-23T04:06:23.503Z,0
2022-11-23T04:07:27.087Z,0
2022-11-23T04:09:34.899Z,0
2022-11-23T04:10:38.176Z,0
2022-11-23T04:11:41.273Z,0
2022-11-23T04:12:44.420Z,0
2022-11-23T04:14:49.543Z,0
2022-11-23T04:15:52.596Z,0
2022-11-23T04:16:55.096Z,0
2022-11-23T04:17:58.071Z,0
2022-11-23T04:20:04.754Z,0
2022-11-23T04:21:07.446Z,0
2022-11-23T04:22:10.328Z,0
2022-11-23T04:23:15.434Z,0
2022-11-23T04:25:21.631Z,0
2022-11-23T04:27:28.068Z,0
2022-11-23T04:28:31.198Z,0
2022-11-23T04:30:38.737Z,0
2022-11-23T04:32:44.872Z,0
2022-11-23T04:34:51.264Z,0
2022-11-23T04:35:55.037Z,0
2022-11-23T04:38:00.572Z,0
2022-11-23T04:40:05.486Z,0
2022-11-23T04:42:11.692Z,0
2022-11-23T04:43:14.395Z,0
2022-11-23T04:45:19.985Z,0
2022-11-23T04:47:25.310Z,0
2022-11-23T04:49:33.097Z,0
2022-11-23T04:50:35.742Z,0
2022-11-23T04:52:42.677Z,0
2022-11-23T04:54:48.866Z,0
2022-11-23T04:56:54.874Z,0
2022-11-23T04:57:57.944Z,0
2022-11-23T05:00:03.213Z,0
2022-11-23T05:02:08.782Z,0
2022-11-23T05:04:19.786Z,0
2022-11-23T05:05:22.552Z,0
2022-11-23T05:07:30.083Z,0
2022-11-23T05:09:36.890Z,0
2022-11-23T05:11:42.368Z,0
2022-11-23T05:12:45.063Z,0
2022-11-23T05:14:51.045Z,0
2022-11-23T05:16:56.171Z,0
2022-11-23T05:18:01.004Z,0
2022-11-23T05:19:03.136Z,0
2022-11-23T05:20:05.076Z,0
2022-11-23T05:22:10.981Z,0
2022-11-23T05:23:14.752Z,0
2022-11-23T05:24:18.075Z,0
2022-11-23T05:25:20.507Z,0
2022-11-23T05:27:26.627Z,0
2022-11-23T05:28:43.824Z,0
2022-11-23T05:29:46.524Z,0
2022-11-23T05:30:49.500Z,0
2022-11-23T05:32:56.261Z,0
2022-11-23T05:35:02.149Z,0
2022-11-23T05:37:08.563Z,0
2022-11-23T05:38:11.598Z,0
2022-11-23T05:40:18.590Z,0
2022-11-23T05:42:24.039Z,0
2022-11-23T05:44:30.450Z,0
2022-11-23T05:45:34.422Z,0
2022-11-23T05:47:40.515Z,0
2022-11-23T05:49:46.320Z,0
2022-11-23T05:51:52.352Z,0
2022-11-23T05:52:55.751Z,0
2022-11-23T05:55:03.316Z,0
2022-11-23T05:57:09.064Z,0
2022-11-23T05:59:14.641Z,0
2022-11-23T06:00:17.684Z,0
2022-11-23T06:02:23.269Z,0
2022-11-23T06:04:29.585Z,0
2022-11-23T06:06:35.757Z,0
2022-11-23T06:07:39.053Z,0
2022-11-23T06:08:49.763Z,0
2022-11-23T06:09:53.151Z,0
2022-11-23T06:12:00.980Z,0
2022-11-23T06:14:15.893Z,0
2022-11-23T06:16:21.696Z,0
2022-11-23T06:17:25.123Z,0
2022-11-23T06:19:31.937Z,0
2022-11-23T06:21:37.900Z,0
2022-11-23T06:23:44.031Z,0
2022-11-23T06:24:47.074Z,0
2022-11-23T06:26:54.222Z,0
2022-11-23T06:29:00.757Z,0
2022-11-23T06:31:06.506Z,0
2022-11-23T06:32:09.564Z,0
2022-11-23T06:34:15.169Z,0
2022-11-23T06:36:20.013Z,0
2022-11-23T06:38:25.827Z,0
2022-11-23T06:39:28.918Z,0
2022-11-23T06:41:36.430Z,0
2022-11-23T06:43:45.490Z,0
2022-11-23T06:44:48.897Z,0
2022-11-23T06:46:54.814Z,0
2022-11-23T06:49:00.631Z,1
2022-11-23T06:51:06.982Z,1
2022-11-23T06:52:10.111Z,1
2022-11-23T06:54:15.310Z,1
2022-11-23T06:56:21.912Z,2
2022-11-23T06:58:28.544Z,2
2022-11-23T06:59:33.875Z,2
2022-11-23T07:01:41.392Z,2
2022-11-23T07:03:48.607Z,3
2022-11-23T07:05:54.506Z,3
2022-11-23T07:06:57.563Z,3
2022-11-23T07:09:03.942Z,4
2022-11-23T07:11:13.268Z,5
2022-11-23T07:13:20.009Z,5
2022-11-23T07:14:23.787Z,5
2022-11-23T07:15:27.498Z,5
2022-11-23T07:16:30.476Z,5
2022-11-23T07:18:36.965Z,5
2022-11-23T07:19:40.027Z,5
2022-11-23T07:20:43.076Z,5
2022-11-23T07:21:46.130Z,6
2022-11-23T07:23:52.587Z,6
2022-11-23T07:24:55.842Z,6
2022-11-23T07:25:58.703Z,6
2022-11-23T07:27:01.954Z,6
2022-11-23T07:29:08.310Z,7
2022-11-23T07:31:15.080Z,7
2022-11-23T07:32:17.858Z,8
2022-11-23T07:34:23.713Z,9
2022-11-23T07:36:29.878Z,10
2022-11-23T07:38:36.162Z,11
2022-11-23T07:40:03.098Z,12
2022-11-23T07:41:06.478Z,12
2022-11-23T07:42:46.580Z,13
2022-11-23T07:43:49.284Z,14
2022-11-23T07:44:52.797Z,14
2022-11-23T07:46:59.626Z,16
2022-11-23T07:49:05.263Z,21
2022-11-23T07:51:11.662Z,20
2022-11-23T07:52:14.792Z,20
2022-11-23T07:54:25.968Z,22
2022-11-23T07:55:29.317Z,22
2022-11-23T07:56:32.940Z,21
2022-11-23T07:58:39.468Z,20
2022-11-23T07:59:42.246Z,22
2022-11-23T08:02:00.434Z,20
2022-11-23T08:03:31.847Z,20
2022-11-23T08:04:36.657Z,23
2022-11-23T08:06:42.265Z,22
2022-11-23T08:08:48.532Z,23
2022-11-23T08:10:56.599Z,24
2022-11-23T08:11:59.647Z,25
2022-11-23T08:14:05.397Z,26
2022-11-23T08:16:12.541Z,27
2022-11-23T08:18:19.108Z,28
2022-11-23T08:19:22.508Z,28
2022-11-23T08:21:29.497Z,31
2022-11-23T08:23:35.678Z,26
2022-11-23T08:25:41.779Z,27
2022-11-23T08:26:44.555Z,27
2022-11-23T08:28:50.444Z,29
2022-11-23T08:30:56.636Z,31
2022-11-23T08:33:04.253Z,27
2022-11-23T08:34:07.502Z,25
2022-11-23T08:35:10.836Z,27
2022-11-23T08:36:14.194Z,28
2022-11-23T08:38:20.235Z,32
2022-11-23T08:39:23.960Z,35
2022-11-23T08:40:28.720Z,38
2022-11-23T08:41:32.054Z,37
2022-11-23T08:43:38.832Z,39
2022-11-23T08:45:45.605Z,32
2022-11-23T08:46:49.030Z,32
2022-11-23T08:48:56.602Z,32
2022-11-23T08:51:03.033Z,36
2022-11-23T08:53:10.498Z,37
2022-11-23T08:54:13.651Z,35
2022-11-23T08:56:19.774Z,36
2022-11-23T08:58:25.742Z,40
2022-11-23T09:00:31.282Z,47
2022-11-23T09:01:34.378Z,46
2022-11-23T09:03:41.562Z,47
2022-11-23T09:05:49.135Z,45
2022-11-23T09:07:55.355Z,45
2022-11-23T09:08:58.115Z,42
2022-11-23T09:11:03.596Z,38
2022-11-23T09:13:10.172Z,38
2022-11-23T09:15:16.968Z,45
2022-11-23T09:16:20.332Z,46
2022-11-23T09:18:24.738Z,47
2022-11-23T09:20:32.568Z,46
2022-11-23T09:22:39.260Z,42
2022-11-23T09:23:41.964Z,40
2022-11-23T09:25:48.449Z,39
2022-11-23T09:27:54.182Z,33
2022-11-23T09:30:00.708Z,32
2022-11-23T09:31:03.553Z,34
2022-11-23T09:33:09.763Z,37
2022-11-23T09:35:16.520Z,36
2022-11-23T09:37:23.392Z,29
2022-11-23T09:38:59.172Z,30
2022-11-23T09:40:02.748Z,31
2022-11-23T09:41:06.162Z,31
2022-11-23T09:43:12.937Z,33
2022-11-23T09:44:16.573Z,35
2022-11-23T09:46:23.097Z,33
2022-11-23T09:47:26.471Z,31
2022-11-23T09:49:31.408Z,25
2022-11-23T09:51:39.653Z,22
2022-11-23T09:52:43.003Z,25
2022-11-23T09:54:49.621Z,32
2022-11-23T09:57:03.835Z,32
2022-11-23T09:58:07.107Z,36
2022-11-23T09:59:11.166Z,36
2022-11-23T10:00:14.493Z,35
2022-11-23T10:02:21.993Z,35
2022-11-23T10:04:27.806Z,40
2022-11-23T10:05:30.666Z,38
2022-11-23T10:07:38.978Z,37
2022-11-23T10:08:42.302Z,40
2022-11-23T10:10:48.117Z,47
2022-11-23T10:11:51.077Z,48
2022-11-23T10:13:58.177Z,41
2022-11-23T10:16:04.625Z,30
2022-11-23T10:17:07.097Z,30
2022-11-23T10:19:13.507Z,31
2022-11-23T10:21:20.476Z,38
2022-11-23T10:22:23.927Z,40
2022-11-23T10:24:32.329Z,36
2022-11-23T10:25:41.285Z,31
2022-11-23T10:26:44.642Z,28
2022-11-23T10:28:51.658Z,35
2022-11-23T10:29:54.709Z,32
2022-11-23T10:32:01.021Z,31
2022-11-23T10:34:07.050Z,46
2022-11-23T10:35:10.256Z,47
2022-11-23T10:37:16.394Z,56
2022-11-23T10:39:25.764Z,50
2022-11-23T10:40:28.268Z,58
2022-11-23T10:42:35.014Z,91
2022-11-23T10:43:38.274Z,93
2022-11-23T10:45:44.512Z,83
2022-11-23T10:47:51.651Z,83
2022-11-23T10:48:54.344Z,101
2022-11-23T10:49:57.784Z,196
2022-11-23T10:51:01.530Z,159
2022-11-23T10:53:07.508Z,153
2022-11-23T10:54:10.825Z,126
2022-11-23T10:56:17.730Z,56
2022-11-23T10:58:22.583Z,42
2022-11-23T10:59:25.283Z,44
2022-11-23T11:00:33.013Z,44
2022-11-23T11:01:36.418Z,42
2022-11-23T11:03:41.917Z,42
2022-11-23T11:04:44.772Z,40
2022-11-23T11:06:13.328Z,45
2022-11-23T11:07:16.878Z,50
2022-11-23T11:09:23.462Z,40
2022-11-23T11:11:30.182Z,43
2022-11-23T11:12:33.548Z,47
2022-11-23T11:13:37.148Z,48
2022-11-23T11:14:47.960Z,54
2022-11-23T11:16:55.615Z,59
2022-11-23T11:19:00.623Z,56
2022-11-23T11:20:04.286Z,56
2022-11-23T11:22:10.323Z,51
2022-11-23T11:24:15.944Z,63
2022-11-23T11:25:18.995Z,75
2022-11-23T11:27:25.551Z,92
2022-11-23T11:29:41.654Z,67
2022-11-23T11:30:44.365Z,63
2022-11-23T11:31:47.697Z,64
2022-11-23T11:32:51.047Z,64
2022-11-23T11:34:58.254Z,59
2022-11-23T11:36:01.232Z,58
2022-11-23T11:38:08.318Z,53
2022-11-23T11:39:21.772Z,56
2022-11-23T11:40:24.680Z,57
2022-11-23T11:41:28.785Z,56
2022-11-23T11:43:42.500Z,58
2022-11-23T11:46:31.973Z,54
2022-11-23T11:48:39.246Z,62
2022-11-23T11:50:45.323Z,59
2022-11-23T11:51:49.006Z,48
2022-11-23T11:53:55.417Z,39
2022-11-23T11:56:00.950Z,44
2022-11-23T11:57:05.201Z,47
2022-11-23T11:59:11.506Z,49
2022-11-23T12:01:17.471Z,56
2022-11-23T12:02:21.428Z,59
2022-11-23T12:04:28.811Z,71
2022-11-23T12:06:34.638Z,77
2022-11-23T12:07:37.821Z,72
2022-11-23T12:09:43.593Z,56
2022-11-23T12:11:50.173Z,52
2022-11-23T12:12:54.231Z,49
2022-11-23T12:13:57.593Z,46
2022-11-23T12:15:01.027Z,41
2022-11-23T12:21:03.489Z,34
2022-11-23T12:23:11.894Z,37
2022-11-23T12:25:16.783Z,81
2022-11-23T12:26:19.479Z,125
2022-11-23T12:28:25.889Z,128
2022-11-23T12:30:32.271Z,210
2022-11-23T12:31:35.328Z,460
2022-11-23T12:33:41.011Z,402
2022-11-23T12:35:48.052Z,376
2022-11-23T12:36:51.033Z,318
2022-11-23T12:38:57.439Z,133
2022-11-23T12:41:03.398Z,245
2022-11-23T12:42:07.026Z,138
2022-11-23T12:44:14.509Z,117
2022-11-23T12:46:21.216Z,106
2022-11-23T12:47:24.469Z,127
2022-11-23T12:49:39.557Z,264
2022-11-23T12:50:43.489Z,311
2022-11-23T12:51:45.984Z,272
2022-11-23T12:52:49.629Z,288
2022-11-23T12:54:56.892Z,114
2022-11-23T12:56:00.982Z,79
2022-11-23T12:58:09.592Z,61
2022-11-23T13:00:22.101Z,62
2022-11-23T13:01:34.907Z,66
2022-11-23T13:02:41.154Z,87
2022-11-23T13:03:47.229Z,148
2022-11-23T13:06:00.712Z,262
2022-11-23T13:07:51.295Z,102
2022-11-23T13:08:57.458Z,126
2022-11-23T13:10:04.357Z,93
2022-11-23T13:12:16.271Z,75
2022-11-23T13:14:28.567Z,76
2022-11-23T13:15:35.148Z,89
2022-11-23T13:16:42.993Z,92
2022-11-23T13:17:48.836Z,99
2022-11-23T13:18:54.682Z,99
2022-11-23T13:21:07.539Z,74
2022-11-23T13:22:13.459Z,69
2022-11-23T13:23:18.287Z,57
2022-11-23T13:24:23.188Z,53
2022-11-23T13:26:32.683Z,47
2022-11-23T13:28:41.235Z,44
2022-11-23T13:29:45.030Z,44
2022-11-23T13:31:19.550Z,44
2022-11-23T13:32:23.922Z,45
2022-11-23T13:33:39.274Z,44
2022-11-23T13:34:42.126Z,41
2022-11-23T13:37:16.098Z,39
2022-11-23T13:39:22.699Z,34
2022-11-23T13:40:26.118Z,31
2022-11-23T13:41:35.808Z,29
2022-11-23T13:42:39.237Z,29
2022-11-23T13:44:46.301Z,36
2022-11-23T13:45:49.976Z,44
2022-11-23T13:47:57.150Z,55
2022-11-23T13:50:03.134Z,50
2022-11-23T13:51:06.193Z,49
2022-11-23T13:53:12.644Z,54
2022-11-23T13:55:18.528Z,61
2022-11-23T13:56:21.744Z,63
2022-11-23T13:58:27.751Z,61
2022-11-23T14:00:35.235Z,50
2022-11-23T14:01:38.901Z,45
2022-11-23T14:03:47.592Z,39
2022-11-23T14:05:53.617Z,35
2022-11-23T14:06:57.037Z,32
2022-11-23T14:09:04.252Z,29
2022-11-23T14:11:15.324Z,27
2022-11-23T14:13:21.030Z,26
2022-11-23T14:14:24.355Z,26
2022-11-23T14:16:31.189Z,26
2022-11-23T14:17:34.416Z,27
2022-11-23T14:19:41.663Z,27
2022-11-23T14:20:44.752Z,27
2022-11-23T14:21:48.091Z,27
2022-11-23T14:22:51.063Z,26
2022-11-23T14:23:54.114Z,25
2022-11-23T14:26:00.144Z,23
2022-11-23T14:27:49.561Z,22
2022-11-23T14:28:52.546Z,20
2022-11-23T14:29:55.701Z,19
2022-11-23T14:32:02.212Z,19
2022-11-23T14:33:06.600Z,18
2022-11-23T14:35:13.454Z,17
2022-11-23T14:36:16.143Z,16
2022-11-23T14:37:19.005Z,16
2022-11-23T14:38:22.265Z,15
2022-11-23T14:40:28.690Z,14
2022-11-23T14:41:31.400Z,14
2022-11-23T14:43:38.192Z,13
2022-11-23T14:45:46.949Z,12
2022-11-23T14:46:49.908Z,11
2022-11-23T14:48:56.412Z,10
2022-11-23T14:51:03.432Z,10
2022-11-23T14:53:10.187Z,9
2022-11-23T14:54:12.885Z,8
2022-11-23T14:56:19.566Z,8
2022-11-23T14:58:25.182Z,7
2022-11-23T14:59:28.509Z,6
2022-11-23T15:01:34.900Z,5
2022-11-23T15:03:56.910Z,5
2022-11-23T15:05:01.662Z,4
2022-11-23T15:06:05.862Z,4
2022-11-23T15:07:10.217Z,3
2022-11-23T15:08:13.201Z,3
2022-11-23T15:09:16.312Z,3
2022-11-23T15:10:19.292Z,2
2022-11-23T15:11:22.269Z,2
2022-11-23T15:12:25.692Z,2
2022-11-23T15:13:28.458Z,1
2022-11-23T15:15:36.772Z,1
2022-11-23T15:16:40.673Z,1
2022-11-23T15:18:46.398Z,0
2022-11-23T15:20:52.187Z,0
2022-11-23T15:22:59.506Z,0
2022-11-23T15:24:02.292Z,0
2022-11-23T15:26:09.377Z,0
2022-11-23T15:28:17.754Z,0
2022-11-23T15:29:20.834Z,0
2022-11-23T15:31:27.147Z,0
2022-11-23T15:32:37.145Z,0
2022-11-23T15:33:40.578Z,0
2022-11-23T15:34:43.626Z,0
2022-11-23T15:36:50.837Z,0
2022-11-23T15:38:57.344Z,0
2022-11-23T15:40:00.904Z,0
2022-11-23T15:42:07.165Z,0
2022-11-23T15:44:12.784Z,0
2022-11-23T15:45:15.836Z,0
2022-11-23T15:47:22.793Z,0
2022-11-23T15:49:28.763Z,0
2022-11-23T16:04:15.893Z,0
2022-11-23T16:06:23.061Z,0
2022-11-23T16:08:29.884Z,0
2022-11-23T16:09:57.084Z,0
2022-11-23T16:12:03.457Z,0
2022-11-23T16:14:10.170Z,0
2022-11-23T16:15:12.392Z,0
2022-11-23T16:17:19.725Z,0
2022-11-23T16:18:23.043Z,0
2022-11-23T16:19:26.527Z,0
2022-11-23T16:20:30.041Z,0
2022-11-23T16:22:35.657Z,0
2022-11-23T16:23:38.989Z,0
2022-11-23T16:25:45.216Z,0
2022-11-23T16:27:51.080Z,0
2022-11-23T16:28:54.517Z,0
2022-11-23T16:30:05.508Z,0
2022-11-23T16:31:08.864Z,0
2022-11-23T16:33:14.173Z,0
2022-11-23T16:34:17.545Z,0
2022-11-23T16:35:21.373Z,0
2022-11-23T16:36:25.401Z,0
2022-11-23T16:38:31.227Z,0
2022-11-23T16:40:37.226Z,0
2022-11-23T16:41:40.502Z,0
2022-11-23T16:43:47.326Z,0
2022-11-23T16:45:53.785Z,0
2022-11-23T16:46:57.504Z,0
2022-11-23T16:49:03.764Z,0
2022-11-23T16:51:10.156Z,0
2022-11-23T16:52:13.908Z,0
2022-11-23T16:53:16.696Z,0
2022-11-23T16:54:36.762Z,0
2022-11-23T16:56:48.237Z,0
2022-11-23T16:58:54.446Z,0
2022-11-23T16:59:57.729Z,0
2022-11-23T17:01:00.237Z,0
2022-11-23T17:02:04.491Z,0
2022-11-23T17:04:11.118Z,0
2022-11-23T17:05:14.574Z,0
2022-11-23T17:06:17.955Z,0
2022-11-23T17:07:21.872Z,0
2022-11-23T17:09:28.572Z,0
2022-11-23T17:10:31.837Z,0
2022-11-23T17:11:35.253Z,0
2022-11-23T17:12:38.381Z,0
2022-11-23T17:14:45.137Z,0
2022-11-23T17:15:48.542Z,0
2022-11-23T17:16:52.256Z,0
2022-11-23T17:17:54.486Z,0
2022-11-23T17:20:06.973Z,0
2022-11-23T17:22:13.571Z,0
2022-11-23T17:23:17.345Z,0
2022-11-23T17:25:24.021Z,0
2022-11-23T17:27:29.811Z,0
2022-11-23T17:29:45.095Z,0
2022-11-23T17:30:48.775Z,0
2022-11-23T17:31:50.744Z,0
2022-11-23T17:32:53.991Z,0
2022-11-23T17:35:01.554Z,0
2022-11-23T17:36:04.673Z,0
2022-11-23T17:37:08.025Z,0
2022-11-23T17:38:11.811Z,0
2022-11-23T17:40:19.036Z,0
2022-11-23T17:42:25.105Z,0
2022-11-23T17:44:30.939Z,0
2022-11-23T17:45:33.656Z,0
2022-11-23T17:47:40.382Z,0
2022-11-23T17:49:46.276Z,0
2022-11-23T17:51:52.134Z,0
2022-11-23T17:52:54.929Z,0
2022-11-23T17:55:02.126Z,0
2022-11-23T17:57:09.243Z,0
2022-11-23T17:59:15.338Z,0
2022-11-23T18:00:18.527Z,0
2022-11-23T18:02:24.978Z,0
2022-11-23T18:04:31.636Z,0
2022-11-23T18:06:38.022Z,0
2022-11-23T18:07:41.897Z,0
2022-11-23T18:09:48.762Z,0
2022-11-23T18:11:00.675Z,0
2022-11-23T18:12:03.677Z,0
2022-11-23T18:14:09.402Z,0
2022-11-23T18:15:12.100Z,0
2022-11-23T18:16:15.523Z,0
2022-11-23T18:17:18.959Z,0
2022-11-23T18:19:25.625Z,0
2022-11-23T18:20:28.677Z,0
2022-11-23T18:21:31.659Z,0
2022-11-23T18:22:34.442Z,0
2022-11-23T18:24:40.545Z,0
2022-11-23T18:25:43.653Z,0
2022-11-23T18:26:47.672Z,0
2022-11-23T18:27:50.772Z,0
2022-11-23T18:29:57.160Z,0
2022-11-23T18:32:03.032Z,0
2022-11-23T18:33:06.367Z,0
2022-11-23T18:35:11.900Z,0
2022-11-23T18:37:18.041Z,0
2022-11-23T18:39:24.776Z,0
2022-11-23T18:40:27.479Z,0
2022-11-23T18:42:34.524Z,0
2022-11-23T18:44:40.362Z,0
2022-11-23T18:46:46.810Z,0
2022-11-23T18:47:49.686Z,0
2022-11-23T18:49:55.153Z,0
2022-11-23T18:52:01.900Z,0
2022-11-23T18:54:07.923Z,0
2022-11-23T18:55:11.247Z,0
2022-11-23T18:57:18.408Z,0
2022-11-23T19:00:01.861Z,0
2022-11-23T19:01:15.063Z,0
2022-11-23T19:02:18.265Z,0
2022-11-23T19:04:24.049Z,0
2022-11-23T19:06:30.234Z,0
2022-11-23T19:07:33.626Z,0
2022-11-23T19:09:39.861Z,0
2022-11-23T19:11:46.705Z,0
2022-11-23T19:13:53.700Z,0
2022-11-23T19:14:56.393Z,0
2022-11-23T19:17:02.419Z,0
2022-11-23T19:19:08.068Z,0
2022-11-23T19:21:14.573Z,0
2022-11-23T19:22:17.546Z,0
2022-11-23T19:24:25.537Z,0
2022-11-23T19:26:31.973Z,0
2022-11-23T19:28:39.256Z,0
2022-11-23T19:29:43.260Z,0
2022-11-23T19:31:49.991Z,0
2022-11-23T19:33:55.905Z,0
2022-11-23T19:36:01.744Z,0
2022-11-23T19:37:05.067Z,0
2022-11-23T19:39:11.847Z,0
2022-11-23T19:41:17.948Z,0
2022-11-23T19:43:24.158Z,0
2022-11-23T19:44:27.898Z,0
2022-11-23T19:46:35.151Z,0
2022-11-23T19:48:41.503Z,0
2022-11-23T19:50:48.089Z,0
2022-11-23T19:51:50.866Z,0
2022-11-23T19:53:31.757Z,0
2022-11-23T19:55:38.660Z,0
2022-11-23T19:56:41.682Z,0
2022-11-23T19:58:47.593Z,0
2022-11-23T20:00:54.883Z,0
2022-11-23T20:03:00.859Z,0
2022-11-23T20:04:11.689Z,0
2022-11-23T20:05:15.263Z,0
2022-11-23T20:06:17.706Z,0
2022-11-23T20:08:24.692Z,0
2022-11-23T20:09:27.956Z,0
2022-11-23T20:10:30.843Z,0
2022-11-23T20:11:33.821Z,0
2022-11-23T20:13:40.314Z,0
2022-11-23T20:15:46.922Z,0
2022-11-23T20:16:50.715Z,0
2022-11-23T20:17:53.760Z,0
2022-11-23T20:18:57.154Z,0
2022-11-23T20:21:03.028Z,0
2022-11-23T20:23:09.221Z,0
2022-11-23T20:24:12.395Z,0
2022-11-23T20:26:18.232Z,0
2022-11-23T20:28:24.445Z,0
2022-11-23T20:30:29.955Z,0
2022-11-23T20:31:33.933Z,0
2022-11-23T20:33:40.783Z,0
2022-11-23T20:35:45.967Z,0
2022-11-23T20:36:49.293Z,0
2022-11-23T20:37:52.927Z,0
2022-11-23T20:38:55.974Z,0
2022-11-23T20:41:02.368Z,0
2022-11-23T20:42:05.089Z,0
2022-11-23T20:43:08.141Z,0
2022-11-23T20:44:11.350Z,0
2022-11-23T20:47:05.345Z,0
2022-11-23T20:49:11.522Z,0
2022-11-23T20:51:17.627Z,0
2022-11-23T20:53:22.838Z,0
2022-11-23T20:54:26.294Z,0
2022-11-23T20:56:32.595Z,0
2022-11-23T20:58:39.690Z,0
2022-11-23T21:00:52.993Z,0
2022-11-23T21:01:57.088Z,0
2022-11-23T21:03:00.663Z,0
2022-11-23T21:04:04.469Z,0
2022-11-23T21:06:09.606Z,0
2022-11-23T21:07:13.280Z,0
2022-11-23T21:08:26.076Z,0
2022-11-23T21:09:38.929Z,0
2022-11-23T21:11:45.797Z,0
2022-11-23T21:13:55.698Z,0
2022-11-23T21:16:02.108Z,0
2022-11-23T21:17:05.545Z,0
2022-11-23T21:19:12.384Z,0
2022-11-23T21:21:17.948Z,0
2022-11-23T21:23:24.465Z,0
2022-11-23T21:24:27.721Z,0
2022-11-23T21:26:32.345Z,0
2022-11-23T21:28:38.633Z,0
2022-11-23T21:30:44.760Z,0
2022-11-23T21:31:48.426Z,0
2022-11-23T21:33:57.618Z,0
2022-11-23T21:36:04.725Z,0
2022-11-23T21:38:11.274Z,0
2022-11-23T21:39:14.697Z,0
2022-11-23T21:41:21.462Z,0
2022-11-23T21:43:27.806Z,0
2022-11-23T21:45:34.728Z,0
2022-11-23T21:46:38.233Z,0
2022-11-23T21:48:44.632Z,0
2022-11-23T21:50:52.305Z,0
2022-11-23T21:52:57.527Z,0
2022-11-23T21:54:00.882Z,0
2022-11-23T21:56:06.849Z,0
2022-11-23T21:58:14.072Z,0
2022-11-23T22:00:19.662Z,0
2022-11-23T22:01:23.919Z,0
2022-11-23T22:03:31.058Z,0
2022-11-23T22:05:39.645Z,0
2022-11-23T22:08:32.753Z,0
2022-11-23T22:10:39.342Z,0
2022-11-23T22:12:46.120Z,0
2022-11-23T22:13:49.472Z,0
2022-11-23T22:15:56.348Z,0
2022-11-23T22:18:02.690Z,0
2022-11-23T22:20:08.715Z,0
2022-11-23T22:21:12.251Z,0
2022-11-23T22:23:19.614Z,0
2022-11-23T22:25:25.874Z,0
2022-11-23T22:27:32.598Z,0
2022-11-23T22:28:35.972Z,0
2022-11-23T22:30:41.345Z,0
2022-11-23T22:32:48.805Z,0
2022-11-23T22:33:52.594Z,0
2022-11-23T22:34:55.287Z,0
2022-11-23T22:35:58.410Z,0
2022-11-23T22:37:11.160Z,0
2022-11-23T22:38:15.102Z,0
2022-11-23T22:40:22.005Z,0
2022-11-23T22:41:24.639Z,0
2022-11-23T22:43:30.741Z,0
2022-11-23T22:45:38.848Z,0
2022-11-23T22:47:45.045Z,0
2022-11-23T22:48:48.409Z,0
2022-11-23T22:50:54.953Z,0
2022-11-23T22:53:00.838Z,0
2022-11-23T22:55:08.257Z,0
2022-11-23T22:56:12.075Z,0
2022-11-23T22:58:18.454Z,0
2022-11-23T23:00:24.891Z,0
2022-11-23T23:02:31.597Z,0
2022-11-23T23:03:36.010Z,0
2022-11-23T23:05:42.549Z,0
2022-11-23T23:07:49.263Z,0
2022-11-23T23:08:52.989Z,0
2022-11-23T23:09:56.842Z,0
2022-11-23T23:11:00.358Z,0
2022-11-23T23:13:05.644Z,0
2022-11-23T23:14:09.084Z,0
2022-11-23T23:15:12.423Z,0
2022-11-23T23:16:16.663Z,0
2022-11-23T23:18:23.185Z,0
2022-11-23T23:19:26.383Z,0
2022-11-23T23:20:28.704Z,0
2022-11-23T23:21:31.971Z,0
2022-11-23T23:23:38.699Z,0
2022-11-23T23:24:42.004Z,0
2022-11-23T23:25:45.322Z,0
2022-11-23T23:26:47.571Z,0
2022-11-23T23:28:52.508Z,0
2022-11-23T23:29:55.700Z,0
2022-11-23T23:30:59.315Z,0
2022-11-23T23:32:02.815Z,0
2022-11-23T23:34:08.239Z,0
2022-11-23T23:36:13.838Z,0
2022-11-23T23:38:19.635Z,0
2022-11-23T23:39:22.191Z,0
2022-11-23T23:41:29.155Z,0
2022-11-23T23:43:34.882Z,0
2022-11-23T23:45:41.720Z,0
2022-11-23T23:46:44.565Z,0
2022-11-23T23:48:50.134Z,0
2022-11-23T23:50:56.138Z,0
2022-11-23T23:53:01.982Z,0
2022-11-23T23:54:04.586Z,0
2022-11-23T23:56:11.866Z,0
2022-11-23T23:58:19.553Z,0
